Time;durP1;ratioP1;P1;durP2;ratioP2;P2;SDS_P1;SDS_P2;PMS_P1;PMS_P2;Temp;Humidity;BMP_temperature;BMP_pressure;BME280_temperature;BME280_humidity;BME280_pressure;Samples;Min_cycle;Max_cycle;Signal;HPM_P1;HPM_P2
2023/05/31 00:00:13;;;;;;;0.95;0.90;;;;;;;16.65;55.84;101837.88;5187382;28;20521;-85
2023/05/31 00:03:06;;;;;;;0.30;0.30;;;;;;;16.82;55.04;101837.28;5166294;28;20039;-87
2023/05/31 00:05:57;;;;;;;0.60;0.60;;;;;;;16.75;55.31;101842.84;5181691;28;20038;-87
2023/05/31 00:08:49;;;;;;;4.40;1.48;;;;;;;16.53;57.83;101831.22;5170370;28;20118;-88
2023/05/31 00:11:40;;;;;;;0.80;0.80;;;;;;;16.45;56.64;101824.47;5180644;28;20088;-85
2023/05/31 00:14:33;;;;;;;0.52;0.52;;;;;;;16.41;56.27;101831.66;5201854;28;20030;-85
2023/05/31 00:17:24;;;;;;;1.80;1.25;;;;;;;16.52;56.08;101833.94;5170212;28;20034;-86
2023/05/31 00:20:16;;;;;;;0.20;0.20;;;;;;;16.22;59.17;101831.41;5164127;28;20037;-86
2023/05/31 00:23:11;;;;;;;0.82;0.82;;;;;;;16.45;56.44;101837.72;5172759;28;20037;-86
2023/05/31 00:26:02;;;;;;;1.50;0.85;;;;;;;16.14;59.00;101825.50;5189805;28;20121;-87
2023/05/31 00:28:54;;;;;;;0.60;0.60;;;;;;;16.25;57.19;101831.28;5185653;28;20026;-86
2023/05/31 00:31:45;;;;;;;0.65;0.65;;;;;;;16.31;56.97;101836.41;5164860;28;20041;-85
2023/05/31 00:34:37;;;;;;;0.80;0.77;;;;;;;16.15;58.45;101830.72;5177966;28;20057;-86
2023/05/31 00:37:28;;;;;;;1.83;1.67;;;;;;;16.00;58.62;101831.25;5192004;28;20055;-86
2023/05/31 00:40:20;;;;;;;1.30;1.02;;;;;;;16.23;57.66;101827.84;5178480;28;20035;-85
2023/05/31 00:43:11;;;;;;;1.77;1.63;;;;;;;15.71;61.44;101830.31;5172271;28;20657;-87
2023/05/31 00:46:03;;;;;;;0.47;0.47;;;;;;;16.15;57.08;101835.19;5172764;28;20519;-86
2023/05/31 00:48:55;;;;;;;0.82;0.82;;;;;;;16.20;56.83;101822.63;5173690;28;20029;-86
2023/05/31 00:51:46;;;;;;;0.77;0.77;;;;;;;16.05;58.32;101824.88;5170769;28;20132;-86
2023/05/31 00:54:38;;;;;;;3.63;1.55;;;;;;;15.95;59.25;101830.53;5182302;28;20068;-85
2023/05/31 00:57:30;;;;;;;0.85;0.85;;;;;;;16.04;58.10;101833.75;5182173;28;20397;-85
2023/05/31 01:00:24;;;;;;;0.75;0.73;;;;;;;15.97;57.51;101836.63;5177387;28;20051;-85
2023/05/31 01:03:16;;;;;;;0.50;0.50;;;;;;;15.82;59.66;101828.22;5185612;28;20099;-85
2023/05/31 01:06:10;;;;;;;0.40;0.40;;;;;;;15.92;58.21;101838.56;5172471;28;20131;-86
2023/05/31 01:09:06;;;;;;;1.15;0.93;;;;;;;15.76;60.05;101835.47;5180498;28;20040;-86
2023/05/31 01:12:21;;;;;;;0.60;0.60;;;;;;;15.55;60.78;101837.88;5193988;28;20791;-89
2023/05/31 01:15:31;;;;;;;0.80;0.50;;;;;;;15.91;57.55;101832.38;5195011;28;20029;-86
2023/05/31 01:18:37;;;;;;;0.90;0.90;;;;;;;15.86;58.53;101834.31;5181692;28;20115;-85
2023/05/31 01:22:14;;;;;;;0.88;0.70;;;;;;;15.97;57.75;101831.31;5190859;28;20809;-87
2023/05/31 01:25:10;;;;;;;1.73;1.45;;;;;;;15.82;58.40;101830.88;5122661;28;20081;-86
2023/05/31 01:28:06;;;;;;;1.45;1.35;;;;;;;15.83;58.85;101830.00;5191130;28;20045;-88
2023/05/31 01:31:02;;;;;;;0.35;0.35;;;;;;;15.93;56.98;101833.22;5194079;28;20099;-86
2023/05/31 01:33:54;;;;;;;0.35;0.35;;;;;;;15.81;60.04;101820.34;5191806;28;20624;-86
2023/05/31 01:36:46;;;;;;;0.80;0.75;;;;;;;15.88;58.65;101821.91;5172716;28;20036;-85
2023/05/31 01:39:37;;;;;;;0.75;0.65;;;;;;;15.56;59.80;101824.59;5177594;28;20456;-85
2023/05/31 01:42:29;;;;;;;2.33;1.38;;;;;;;15.73;57.89;101824.09;5179121;28;20063;-85
2023/05/31 01:45:22;;;;;;;1.20;0.63;;;;;;;15.73;57.97;101834.69;5183196;28;20040;-86
2023/05/31 01:48:14;;;;;;;1.15;1.13;;;;;;;15.63;58.71;101833.22;5180751;28;20113;-87
2023/05/31 01:51:08;;;;;;;0.40;0.40;;;;;;;15.57;58.75;101836.91;5184819;28;20029;-86
2023/05/31 01:53:59;;;;;;;0.30;0.30;;;;;;;15.72;57.97;101832.94;5203053;28;20037;-86
2023/05/31 01:56:51;;;;;;;1.10;1.02;;;;;;;15.78;57.25;101828.38;5205136;28;20056;-86
2023/05/31 01:59:43;;;;;;;0.95;0.93;;;;;;;15.74;57.50;101833.75;5194346;28;20037;-85
2023/05/31 02:02:35;;;;;;;0.40;0.40;;;;;;;15.45;60.43;101839.94;5193688;28;20113;-86
2023/05/31 02:05:27;;;;;;;0.75;0.75;;;;;;;15.54;59.51;101829.06;5183944;28;20026;-85
2023/05/31 02:08:18;;;;;;;0.55;0.55;;;;;;;15.24;61.26;101833.50;5176031;28;20045;-85
2023/05/31 02:11:09;;;;;;;1.20;0.70;;;;;;;15.52;58.71;101833.56;5191689;28;20018;-86
2023/05/31 02:14:00;;;;;;;0.50;0.50;;;;;;;15.58;58.14;101821.91;5199013;28;20404;-86
2023/05/31 02:16:52;;;;;;;5.15;0.80;;;;;;;15.54;58.18;101822.91;5181367;28;20119;-85
2023/05/31 02:19:46;;;;;;;1.20;0.93;;;;;;;15.35;58.76;101826.09;5179604;28;20037;-86
2023/05/31 02:22:37;;;;;;;0.65;0.65;;;;;;;15.39;58.79;101824.25;5195922;28;20140;-86
2023/05/31 02:25:29;;;;;;;1.00;0.90;;;;;;;15.23;60.14;101823.84;5180340;28;20037;-87
2023/05/31 02:28:20;;;;;;;0.88;0.60;;;;;;;15.30;59.18;101828.03;5180431;28;20033;-86
2023/05/31 02:31:11;;;;;;;0.50;0.50;;;;;;;15.43;58.22;101828.53;5181302;28;20907;-85
2023/05/31 02:34:02;;;;;;;0.57;0.57;;;;;;;15.24;58.58;101833.50;5184607;28;20049;-87
2023/05/31 02:36:53;;;;;;;1.45;1.10;;;;;;;15.22;60.42;101838.81;5181944;28;20110;-87
2023/05/31 02:39:44;;;;;;;2.92;1.67;;;;;;;15.36;58.10;101834.94;5181514;28;20022;-85
2023/05/31 02:42:38;;;;;;;0.75;0.75;;;;;;;15.37;57.52;101828.72;5179518;28;20037;-86
2023/05/31 02:45:29;;;;;;;0.50;0.50;;;;;;;15.23;58.28;101832.63;5201982;28;20026;-87
2023/05/31 02:48:20;;;;;;;1.35;0.98;;;;;;;15.15;59.09;101831.97;5199851;28;20742;-86
2023/05/31 02:51:11;;;;;;;1.90;1.60;;;;;;;15.15;58.41;101818.75;5182272;28;20044;-85
2023/05/31 02:54:03;;;;;;;0.68;0.68;;;;;;;15.08;58.41;101820.69;5187611;28;20137;-85
2023/05/31 02:56:54;;;;;;;1.17;1.10;;;;;;;15.19;57.90;101827.47;5196230;28;20097;-86
2023/05/31 02:59:46;;;;;;;0.45;0.45;;;;;;;15.19;57.60;101827.47;5202658;28;20037;-86
2023/05/31 03:02:38;;;;;;;0.75;0.75;;;;;;;14.87;59.99;101831.88;5192693;28;20045;-85
2023/05/31 03:05:29;;;;;;;0.40;0.40;;;;;;;15.09;58.13;101837.44;5192200;28;20033;-86
2023/05/31 03:08:21;;;;;;;0.70;0.68;;;;;;;14.79;60.66;101835.59;5186815;28;20091;-85
2023/05/31 03:11:12;;;;;;;0.93;0.93;;;;;;;15.01;58.60;101835.00;5170872;28;20105;-85
2023/05/31 03:14:03;;;;;;;1.23;1.15;;;;;;;14.98;60.17;101829.81;5193176;28;20136;-86
2023/05/31 03:16:55;;;;;;;0.98;0.93;;;;;;;14.98;59.47;101829.81;5188864;28;20046;-87
2023/05/31 03:19:46;;;;;;;0.65;0.60;;;;;;;14.92;59.11;101835.25;5172140;28;20032;-87
2023/05/31 03:22:37;;;;;;;0.50;0.50;;;;;;;14.89;60.33;101827.44;5178101;28;20500;-86
2023/05/31 03:25:28;;;;;;;1.33;1.23;;;;;;;14.89;59.71;101838.00;5176546;28;20121;-86
2023/05/31 03:28:27;;;;;;;0.70;0.70;;;;;;;14.98;58.27;101835.13;5168338;28;20038;-85
2023/05/31 03:31:19;;;;;;;1.23;1.13;;;;;;;15.00;58.52;101833.28;5173456;28;20680;-87
2023/05/31 03:34:15;;;;;;;0.75;0.75;;;;;;;14.99;57.89;101834.22;5176171;28;20040;-87
2023/05/31 03:37:06;;;;;;;1.02;1.02;;;;;;;14.93;57.95;101827.31;5176814;28;20038;-85
2023/05/31 03:39:57;;;;;;;1.10;0.93;;;;;;;14.98;58.43;101824.53;5181922;28;20160;-88
2023/05/31 03:42:49;;;;;;;2.60;1.27;;;;;;;14.97;58.20;101820.16;5181177;28;20033;-86
2023/05/31 03:45:40;;;;;;;1.50;1.40;;;;;;;14.86;59.67;101822.22;5192765;28;20036;-87
2023/05/31 03:48:31;;;;;;;1.80;1.55;;;;;;;14.64;60.39;101828.91;5192022;28;20540;-86
2023/05/31 03:51:22;;;;;;;1.98;0.68;;;;;;;14.84;58.70;101818.75;5183602;28;20614;-88
2023/05/31 03:54:13;;;;;;;1.02;0.93;;;;;;;14.82;58.47;101823.22;5194742;28;20034;-87
2023/05/31 03:57:05;;;;;;;1.13;1.05;;;;;;;14.74;59.64;101816.38;5175048;28;20140;-87
2023/05/31 03:59:56;;;;;;;1.05;1.02;;;;;;;14.69;60.71;101817.41;5182968;28;20535;-87
2023/05/31 04:02:47;;;;;;;3.17;1.25;;;;;;;14.76;58.91;101819.81;5175928;28;20068;-87
2023/05/31 04:05:38;;;;;;;1.17;1.08;;;;;;;14.86;58.96;101814.28;5177185;28;20030;-86
2023/05/31 04:08:29;;;;;;;1.02;1.02;;;;;;;14.42;61.12;101812.75;5172341;28;20033;-87
2023/05/31 04:11:20;;;;;;;0.80;0.57;;;;;;;14.70;59.10;101814.72;5169809;28;20029;-87
2023/05/31 04:14:11;;;;;;;1.63;1.38;;;;;;;14.77;58.92;101810.16;5195621;28;20511;-88
2023/05/31 04:17:02;;;;;;;0.68;0.65;;;;;;;14.82;58.85;101816.16;5185187;28;20034;-87
2023/05/31 04:19:53;;;;;;;1.17;0.98;;;;;;;14.76;58.52;101819.81;5170534;28;20045;-86
2023/05/31 04:22:44;;;;;;;1.25;1.15;;;;;;;14.75;59.06;101815.44;5188333;28;20106;-87
2023/05/31 04:25:35;;;;;;;0.70;0.70;;;;;;;14.68;60.30;101820.97;5163225;28;20030;-87
2023/05/31 04:28:29;;;;;;;0.70;0.70;;;;;;;14.52;62.06;101823.97;5169619;28;20488;-87
2023/05/31 04:31:24;;;;;;;2.45;1.27;;;;;;;14.56;61.46;101830.03;5189228;28;20499;-87
2023/05/31 04:34:17;;;;;;;1.08;1.08;;;;;;;14.45;63.07;101825.91;5160615;28;20033;-86
2023/05/31 04:37:08;;;;;;;1.05;0.80;;;;;;;14.67;60.64;101832.44;5167290;28;20480;-86
2023/05/31 04:40:00;;;;;;;1.65;1.55;;;;;;;14.51;62.39;101821.34;5177679;28;20080;-86
2023/05/31 04:42:51;;;;;;;1.40;1.30;;;;;;;14.46;61.54;101827.63;5181172;28;20041;-87
2023/05/31 04:45:42;;;;;;;0.82;0.75;;;;;;;14.45;62.21;101832.97;5195682;28;20116;-87
2023/05/31 04:48:33;;;;;;;1.75;1.58;;;;;;;14.43;62.55;101832.97;5175705;28;20735;-85
2023/05/31 04:51:24;;;;;;;0.65;0.60;;;;;;;14.53;61.64;101835.38;5189707;28;20613;-87
2023/05/31 04:54:15;;;;;;;2.03;1.35;;;;;;;14.60;61.03;101829.91;5178183;28;20026;-87
2023/05/31 04:57:06;;;;;;;1.13;1.05;;;;;;;14.45;64.79;101840.88;5201380;28;20048;-86
2023/05/31 04:59:56;;;;;;;0.95;0.95;;;;;;;14.51;62.84;101839.84;5186098;28;20117;-86
2023/05/31 05:02:47;;;;;;;1.83;1.42;;;;;;;14.56;62.00;101841.47;5191726;28;20101;-86
2023/05/31 05:05:38;;;;;;;1.27;1.17;;;;;;;14.68;61.18;101842.09;5176283;28;20041;-86
2023/05/31 05:08:29;;;;;;;1.67;1.58;;;;;;;14.58;62.75;101838.78;5202682;28;20057;-85
2023/05/31 05:11:19;;;;;;;0.90;0.90;;;;;;;14.54;62.05;101839.78;5191341;28;20036;-86
2023/05/31 05:14:10;;;;;;;0.75;0.75;;;;;;;14.50;62.45;101835.50;5176585;28;20033;-85
2023/05/31 05:17:02;;;;;;;0.63;0.63;;;;;;;14.56;61.52;101843.25;5178493;28;20041;-86
2023/05/31 05:19:52;;;;;;;1.90;1.23;;;;;;;14.44;65.29;101840.00;5168526;28;20061;-86
2023/05/31 05:22:51;;;;;;;0.95;0.90;;;;;;;14.55;62.85;101844.16;5168435;28;20081;-85
2023/05/31 05:25:41;;;;;;;1.30;0.95;;;;;;;14.50;63.23;101838.13;5171201;28;20630;-86
2023/05/31 05:28:32;;;;;;;3.10;0.88;;;;;;;14.67;61.71;101835.91;5176411;28;20029;-85
2023/05/31 05:31:23;;;;;;;1.85;1.45;;;;;;;14.66;61.92;101844.78;5181510;28;20034;-87
2023/05/31 05:34:14;;;;;;;4.90;2.15;;;;;;;14.67;64.49;101840.34;5187435;28;20433;-86
2023/05/31 05:37:05;;;;;;;1.27;1.23;;;;;;;14.60;65.47;101836.97;5177330;28;20112;-86
2023/05/31 05:39:56;;;;;;;1.20;1.10;;;;;;;14.69;63.33;101839.41;5186425;28;20013;-85
2023/05/31 05:42:48;;;;;;;1.42;1.33;;;;;;;14.67;62.81;101841.19;5191950;28;20037;-87
2023/05/31 05:45:39;;;;;;;1.20;1.08;;;;;;;14.77;62.21;101842.69;5172671;28;20036;-86
2023/05/31 05:48:29;;;;;;;2.08;1.27;;;;;;;14.97;63.43;101849.22;5170822;28;20042;-86
2023/05/31 05:51:20;;;;;;;1.33;0.90;;;;;;;14.74;65.91;101853.38;5176775;28;20030;-85
2023/05/31 05:54:11;;;;;;;1.08;1.05;;;;;;;14.65;67.83;101848.28;5176099;28;20033;-87
2023/05/31 05:57:02;;;;;;;0.60;0.60;;;;;;;14.76;65.48;101848.03;5179168;28;20087;-85
2023/05/31 05:59:52;;;;;;;0.70;0.70;;;;;;;14.84;66.37;101842.53;5188273;28;20675;-84
2023/05/31 06:02:43;;;;;;;1.17;1.13;;;;;;;14.90;63.49;101843.22;5190516;28;20065;-87
2023/05/31 06:05:34;;;;;;;2.95;1.48;;;;;;;14.76;66.13;101846.25;5171655;28;20072;-86
2023/05/31 06:08:25;;;;;;;0.77;0.77;;;;;;;14.92;65.22;101843.19;5168849;28;20030;-86
2023/05/31 06:11:16;;;;;;;1.35;1.27;;;;;;;14.99;64.24;101850.06;5168130;28;20072;-86
2023/05/31 06:14:06;;;;;;;1.63;1.52;;;;;;;14.98;66.68;101843.03;5189002;28;20037;-86
2023/05/31 06:16:57;;;;;;;1.77;1.17;;;;;;;15.09;63.41;101840.94;5186210;28;20047;-86
2023/05/31 06:19:48;;;;;;;0.80;0.80;;;;;;;15.12;63.79;101834.72;5181838;28;20459;-86
2023/05/31 06:22:39;;;;;;;1.65;1.00;;;;;;;15.17;64.40;101835.44;5187687;28;20065;-84
2023/05/31 06:25:30;;;;;;;1.80;1.70;;;;;;;15.19;65.39;101840.69;5173133;28;20046;-88
2023/05/31 06:28:20;;;;;;;0.30;0.30;;;;;;;15.22;62.76;101837.97;5196594;28;20141;-85
2023/05/31 06:31:11;;;;;;;2.03;1.75;;;;;;;15.17;65.98;101850.44;5170009;28;20393;-85
2023/05/31 06:34:02;;;;;;;0.93;0.80;;;;;;;15.18;66.57;101846.88;5170091;28;20029;-85
2023/05/31 06:36:53;;;;;;;0.90;0.90;;;;;;;15.28;66.10;101843.06;5181343;28;20041;-84
2023/05/31 06:39:44;;;;;;;0.88;0.82;;;;;;;15.17;67.60;101846.03;5182173;28;20029;-86
2023/05/31 06:42:35;;;;;;;0.80;0.80;;;;;;;15.33;64.44;101846.44;5169226;28;20048;-84
2023/05/31 06:45:25;;;;;;;1.27;0.98;;;;;;;15.39;65.95;101841.00;5189402;28;20025;-86
2023/05/31 06:48:16;;;;;;;1.33;1.23;;;;;;;15.41;64.05;101839.16;5180259;28;20091;-85
2023/05/31 06:51:07;;;;;;;0.52;0.52;;;;;;;15.46;65.50;101840.81;5173504;28;20041;-87
2023/05/31 06:54:00;;;;;;;0.43;0.43;;;;;;;15.47;66.47;101839.91;5169212;28;20033;-86
2023/05/31 06:56:50;;;;;;;4.68;0.73;;;;;;;15.64;64.66;101842.91;5182848;28;20064;-87
2023/05/31 06:59:41;;;;;;;2.33;2.08;;;;;;;15.69;64.40;101837.47;5176020;28;20032;-84
2023/05/31 07:02:32;;;;;;;2.55;1.20;;;;;;;15.78;63.70;101838.94;5187333;28;20044;-86
2023/05/31 07:05:23;;;;;;;1.15;1.10;;;;;;;15.78;65.65;101847.78;5189018;28;20034;-86
2023/05/31 07:08:16;;;;;;;1.05;0.85;;;;;;;15.82;65.35;101848.53;5169539;28;20070;-86
2023/05/31 07:11:07;;;;;;;2.20;1.50;;;;;;;15.88;64.18;101840.44;5172129;28;20022;-85
2023/05/31 07:14:01;;;;;;;1.02;1.02;;;;;;;15.96;65.19;101841.06;5185468;28;20029;-86
2023/05/31 07:16:52;;;;;;;0.73;0.73;;;;;;;15.95;64.39;101838.47;5201797;28;20048;-86
2023/05/31 07:19:49;;;;;;;0.85;0.85;;;;;;;16.08;63.59;101845.09;5190264;28;20041;-86
2023/05/31 07:22:40;;;;;;;0.77;0.65;;;;;;;16.20;63.77;101841.19;5191750;28;20136;-85
2023/05/31 07:25:31;;;;;;;1.13;1.13;;;;;;;16.22;65.11;101828.75;5173975;28;20061;-86
2023/05/31 07:28:22;;;;;;;0.45;0.45;;;;;;;16.23;63.80;101835.78;5171768;28;20053;-85
2023/05/31 07:31:15;;;;;;;1.77;1.38;;;;;;;16.28;65.27;101825.91;5175567;28;20124;-87
2023/05/31 07:34:06;;;;;;;14.02;0.85;;;;;;;16.30;65.45;101828.47;5176245;28;20620;-85
2023/05/31 07:36:57;;;;;;;1.92;1.05;;;;;;;16.38;63.93;101831.75;5187560;28;20042;-86
2023/05/31 07:39:47;;;;;;;0.55;0.55;;;;;;;16.47;63.68;101830.59;5207184;28;20083;-86
2023/05/31 07:42:38;;;;;;;0.40;0.40;;;;;;;16.53;63.09;101827.72;5172401;28;20033;-85
2023/05/31 07:45:29;;;;;;;0.60;0.60;;;;;;;16.71;63.41;101828.00;5171563;28;20033;-86
2023/05/31 07:48:20;;;;;;;1.52;1.33;;;;;;;16.72;62.32;101832.38;5156654;28;20034;-86
2023/05/31 07:51:11;;;;;;;1.73;1.20;;;;;;;16.73;63.13;101834.13;5169119;28;20682;-85
2023/05/31 07:54:02;;;;;;;0.35;0.35;;;;;;;16.81;64.10;101840.00;5191017;28;20072;-86
2023/05/31 07:56:53;;;;;;;0.52;0.52;;;;;;;16.82;63.61;101839.94;5177827;28;20272;-87
2023/05/31 07:59:44;;;;;;;0.50;0.50;;;;;;;16.89;63.10;101830.00;5177792;28;20113;-86
2023/05/31 08:02:35;;;;;;;0.50;0.50;;;;;;;16.98;63.33;101831.47;5174251;28;20038;-86
2023/05/31 08:05:26;;;;;;;1.00;0.95;;;;;;;17.05;63.44;101832.13;5176185;28;20029;-87
2023/05/31 08:08:17;;;;;;;0.65;0.65;;;;;;;17.09;62.49;101828.41;5173690;28;20037;-86
2023/05/31 08:11:08;;;;;;;0.77;0.77;;;;;;;17.15;61.16;101828.19;5188093;28;20030;-86
2023/05/31 08:13:58;;;;;;;0.93;0.93;;;;;;;17.33;60.94;101825.78;5189280;28;20072;-85
2023/05/31 08:16:50;;;;;;;0.43;0.43;;;;;;;17.31;60.77;101818.72;5190951;28;20037;-85
2023/05/31 08:19:41;;;;;;;0.70;0.70;;;;;;;17.43;60.33;101814.78;5191248;28;20018;-86
2023/05/31 08:22:32;;;;;;;1.10;1.10;;;;;;;17.39;61.02;101815.78;5181116;28;20064;-86
2023/05/31 08:25:23;;;;;;;0.90;0.60;;;;;;;17.57;60.19;101808.06;5174390;28;20100;-86
2023/05/31 08:28:14;;;;;;;0.63;0.40;;;;;;;17.58;59.57;101809.78;5171387;28;20044;-86
2023/05/31 08:31:06;;;;;;;0.57;0.57;;;;;;;17.66;59.26;101801.50;5194070;28;20036;-85
2023/05/31 08:33:59;;;;;;;0.80;0.80;;;;;;;17.88;58.59;101807.69;5171435;28;20034;-86
2023/05/31 08:36:49;;;;;;;0.32;0.32;;;;;;;17.79;59.00;101797.44;5185522;28;20042;-85
2023/05/31 08:39:40;;;;;;;0.77;0.77;;;;;;;17.86;57.15;101798.03;5182689;28;20025;-86
2023/05/31 08:42:43;;;;;;;1.48;0.95;;;;;;;17.89;57.63;101801.44;5169154;28;20048;-86
2023/05/31 08:45:35;;;;;;;1.00;0.90;;;;;;;18.01;58.79;101792.16;5182422;28;20026;-86
2023/05/31 08:48:44;;;;;;;0.38;0.25;;;;;;;18.05;59.88;101790.25;5183417;28;20630;-85
2023/05/31 08:51:36;;;;;;;1.33;0.77;;;;;;;18.09;59.12;101790.06;5184084;28;20052;-86
2023/05/31 08:54:29;;;;;;;0.75;0.75;;;;;;;18.32;54.55;101792.63;5170661;28;20504;-84
2023/05/31 08:57:20;;;;;;;0.40;0.40;;;;;;;18.23;53.59;101786.78;5174939;28;20701;-84
2023/05/31 09:00:12;;;;;;;0.88;0.52;;;;;;;18.24;54.62;101787.69;5160224;28;20120;-84
2023/05/31 09:03:06;;;;;;;11.85;0.98;;;;;;;18.45;54.62;101780.56;5167165;28;20041;-84
2023/05/31 09:05:57;;;;;;;0.52;0.52;;;;;;;18.66;55.00;101778.78;5172662;28;20484;-87
2023/05/31 09:08:49;;;;;;;0.38;0.38;;;;;;;18.70;55.23;101774.19;5201859;28;20037;-84
2023/05/31 09:11:40;;;;;;;0.47;0.47;;;;;;;18.77;53.42;101767.66;5162992;28;20049;-86
2023/05/31 09:14:31;;;;;;;0.30;0.30;;;;;;;18.82;52.27;101767.44;5163621;28;20493;-85
2023/05/31 09:17:22;;;;;;;1.67;1.00;;;;;;;18.90;50.61;101769.75;5167490;28;20394;-84
2023/05/31 09:20:14;;;;;;;0.30;0.30;;;;;;;18.80;52.09;101770.16;5171571;28;20068;-85
2023/05/31 09:23:05;;;;;;;0.90;0.90;;;;;;;19.12;49.85;101759.91;5186827;28;20140;-85
2023/05/31 09:25:56;;;;;;;0.25;0.25;;;;;;;19.20;49.44;101762.19;5165120;28;20370;-86
2023/05/31 09:28:48;;;;;;;1.35;0.98;;;;;;;19.13;49.31;101752.75;5146912;28;20036;-85
2023/05/31 09:31:44;;;;;;;0.30;0.30;;;;;;;19.17;50.95;101757.03;5157350;28;20112;-85
2023/05/31 09:34:35;;;;;;;0.63;0.63;;;;;;;19.43;48.12;101745.13;5194993;28;20578;-86
2023/05/31 09:37:26;;;;;;;0.35;0.35;;;;;;;19.42;48.84;101746.06;5164984;28;20034;-83
2023/05/31 09:40:25;;;;;;;0.73;0.73;;;;;;;19.50;49.37;101749.22;5178896;28;20475;-84
2023/05/31 09:43:16;;;;;;;0.30;0.30;;;;;;;19.50;49.43;101743.88;5169298;28;20120;-85
2023/05/31 09:46:12;;;;;;;0.63;0.52;;;;;;;19.55;49.89;101742.78;5180220;28;20685;-85
2023/05/31 09:49:06;;;;;;;1.20;1.10;;;;;;;19.64;48.41;101737.00;5179618;28;20033;-85
2023/05/31 09:51:57;;;;;;;0.47;0.47;;;;;;;19.81;49.15;101731.72;5168762;28;20040;-85
2023/05/31 09:54:48;;;;;;;0.57;0.57;;;;;;;20.00;48.44;101727.31;5179905;28;20036;-85
2023/05/31 09:57:40;;;;;;;1.02;0.80;;;;;;;20.07;48.53;101726.91;5179965;28;20038;-85
2023/05/31 10:00:31;;;;;;;0.28;0.28;;;;;;;20.01;48.32;101731.69;5179543;28;20048;-84
2023/05/31 10:03:22;;;;;;;0.30;0.30;;;;;;;20.12;47.92;101724.84;5163103;28;20038;-84
2023/05/31 10:06:16;;;;;;;0.32;0.32;;;;;;;20.29;48.37;101724.00;5160901;28;20072;-85
2023/05/31 10:09:07;;;;;;;;;;;;;;;20.36;45.10;101715.69;5181526;28;20571;-85
2023/05/31 10:12:02;;;;;;;1.48;0.40;;;;;;;20.35;45.82;101709.50;5197550;28;19920;-84
2023/05/31 10:15:00;;;;;;;0.40;0.40;;;;;;;20.52;44.97;101710.41;5183127;28;20037;-85
2023/05/31 10:18:03;;;;;;;0.40;0.40;;;;;;;20.48;46.67;101703.50;5168399;28;20034;-85
2023/05/31 10:21:22;;;;;;;0.52;0.52;;;;;;;20.63;46.92;101702.66;5184876;28;20089;-85
2023/05/31 10:24:52;;;;;;;0.47;0.47;;;;;;;20.59;46.65;101695.78;5166890;28;20133;-85
2023/05/31 10:27:45;;;;;;;0.43;0.43;;;;;;;20.67;45.29;101688.25;5122112;28;20179;-85
2023/05/31 10:30:39;;;;;;;0.32;0.30;;;;;;;20.95;43.29;101692.06;5193392;28;20036;-84
2023/05/31 10:33:31;;;;;;;0.43;0.43;;;;;;;20.99;44.28;101682.97;5192634;28;20049;-84
2023/05/31 10:36:22;;;;;;;4.68;1.27;;;;;;;21.01;43.33;101678.41;5173022;28;20033;-83
2023/05/31 10:39:17;;;;;;;0.20;0.20;;;;;;;21.14;41.10;101677.72;5170836;28;20026;-84
2023/05/31 10:42:38;;;;;;;5.82;1.52;;;;;;;21.03;42.66;101665.81;5209447;28;20041;-85
2023/05/31 10:45:36;;;;;;;0.52;0.52;;;;;;;21.12;43.78;101667.13;5197260;28;20045;-86
2023/05/31 10:48:55;;;;;;;0.32;0.32;;;;;;;21.28;42.61;101672.44;5176609;28;20041;-86
2023/05/31 10:51:46;;;;;;;1.25;0.55;;;;;;;21.26;41.80;101676.16;5187390;28;20411;-86
2023/05/31 10:54:38;;;;;;;0.65;0.65;;;;;;;21.47;41.20;101668.72;5167649;28;20437;-87
2023/05/31 10:57:29;;;;;;;0.50;0.50;;;;;;;21.69;40.55;101663.00;5184876;28;20033;-85
2023/05/31 11:00:21;;;;;;;0.28;0.28;;;;;;;21.76;40.43;101667.03;5177465;28;20092;-85
2023/05/31 11:03:12;;;;;;;0.20;0.20;;;;;;;21.72;41.26;101664.63;5172346;28;20524;-86
2023/05/31 11:06:08;;;;;;;0.47;0.43;;;;;;;21.85;40.76;101668.31;5176746;28;20061;-85
2023/05/31 11:09:00;;;;;;;0.65;0.50;;;;;;;21.83;40.53;101671.03;5182905;28;20017;-86
2023/05/31 11:11:51;;;;;;;0.52;0.52;;;;;;;21.82;39.52;101663.13;5186278;28;20049;-85
2023/05/31 11:14:59;;;;;;;0.35;0.35;;;;;;;21.80;39.02;101654.34;5175887;28;20043;-84
2023/05/31 11:17:56;;;;;;;0.20;0.20;;;;;;;22.07;39.47;101656.31;5175158;28;20030;-85
2023/05/31 11:20:47;;;;;;;0.20;0.20;;;;;;;22.27;39.78;101647.06;5171010;28;20393;-85
2023/05/31 11:23:38;;;;;;;0.30;0.30;;;;;;;22.16;40.07;101653.06;5200961;28;20132;-87
2023/05/31 11:26:29;;;;;;;0.45;0.43;;;;;;;22.30;39.14;101652.22;5177141;28;20073;-85
2023/05/31 11:29:20;;;;;;;0.52;0.50;;;;;;;22.52;38.08;101651.75;5167033;28;20025;-84
2023/05/31 11:32:11;;;;;;;1.15;0.73;;;;;;;22.26;38.58;101648.88;5201957;28;20064;-86
2023/05/31 11:35:08;;;;;;;0.30;0.30;;;;;;;22.55;38.51;101643.53;5189292;28;20030;-86
2023/05/31 11:38:01;;;;;;;1.08;1.08;;;;;;;22.50;39.66;101634.97;5175860;28;20030;-87
2023/05/31 11:40:51;;;;;;;0.67;0.67;;;;;;;22.61;38.54;101643.16;5200232;28;20095;-87
2023/05/31 11:43:44;;;;;;;0.20;0.20;;;;;;;22.77;38.63;101637.69;5184229;28;20311;-87
2023/05/31 11:46:40;;;;;;;0.30;0.30;;;;;;;22.77;39.57;101626.13;5182015;28;20072;-86
2023/05/31 11:49:34;;;;;;;0.45;0.45;;;;;;;23.04;37.58;101636.88;5183603;28;20052;-86
2023/05/31 11:52:24;;;;;;;0.22;0.22;;;;;;;23.14;37.52;101634.44;5172894;28;20033;-85
2023/05/31 11:55:21;;;;;;;0.20;0.20;;;;;;;23.05;38.81;101627.00;5197734;28;20029;-88
2023/05/31 11:58:12;;;;;;;0.20;0.20;;;;;;;23.31;37.55;101630.66;5169870;28;20087;-88
2023/05/31 12:01:03;;;;;;;3.45;1.35;;;;;;;23.30;38.27;101622.72;5166357;28;20390;-88
2023/05/31 12:04:01;;;;;;;0.30;0.30;;;;;;;23.39;36.91;101622.13;5183978;28;20017;-86
2023/05/31 12:06:51;;;;;;;2.78;1.20;;;;;;;23.38;37.99;101615.91;5182012;28;20048;-87
2023/05/31 12:09:43;;;;;;;0.20;0.20;;;;;;;23.51;38.60;101615.06;5177642;28;20040;-87
2023/05/31 12:12:35;;;;;;;2.88;1.15;;;;;;;23.77;36.24;101609.75;5181909;28;20046;-86
2023/05/31 12:15:29;;;;;;;0.63;0.63;;;;;;;23.82;37.47;101611.16;5172975;28;20393;-86
2023/05/31 12:18:22;;;;;;;0.40;0.40;;;;;;;23.85;37.08;101608.25;5173081;28;20041;-85
2023/05/31 12:21:15;;;;;;;6.40;0.60;;;;;;;23.95;36.80;101597.78;5193555;28;20132;-85
2023/05/31 12:24:18;;;;;;;0.52;0.52;;;;;;;23.87;37.34;101606.31;5185783;28;20366;-87
2023/05/31 12:27:10;;;;;;;3.10;0.57;;;;;;;24.04;36.27;101601.63;5185710;28;20144;-86
2023/05/31 12:30:02;;;;;;;0.32;0.32;;;;;;;24.16;35.81;101606.16;5180496;28;20056;-87
2023/05/31 12:32:53;;;;;;;0.20;0.20;;;;;;;24.17;36.84;101599.78;5168992;28;20136;-87
2023/05/31 12:35:46;;;;;;;0.60;0.60;;;;;;;24.32;36.78;101597.00;5175105;28;20033;-87
2023/05/31 12:38:38;;;;;;;0.65;0.63;;;;;;;24.48;35.14;101594.94;5170735;28;20057;-86
2023/05/31 12:41:29;;;;;;;1.55;0.43;;;;;;;24.46;36.03;101594.19;5177618;28;20045;-87
2023/05/31 12:44:21;;;;;;;0.63;0.63;;;;;;;24.55;35.19;101592.63;5198889;28;20038;-87
2023/05/31 12:47:12;;;;;;;0.13;0.13;;;;;;;24.51;35.44;101588.47;5176923;28;20124;-87
2023/05/31 12:50:06;;;;;;;0.40;0.40;;;;;;;24.57;34.96;101585.34;5164965;28;20897;-85
2023/05/31 12:52:57;;;;;;;12.13;1.75;;;;;;;24.86;35.93;101582.38;5187597;28;20093;-86
2023/05/31 12:55:48;;;;;;;0.55;0.55;;;;;;;24.80;35.39;101586.38;5170486;28;20026;-86
2023/05/31 12:58:39;;;;;;;0.75;0.68;;;;;;;25.01;34.87;101588.41;5197618;28;20045;-86
2023/05/31 13:01:31;;;;;;;0.30;0.30;;;;;;;24.98;34.67;101583.28;5171369;28;20034;-86
2023/05/31 13:04:23;;;;;;;1.85;1.08;;;;;;;24.85;33.84;101585.16;5180637;28;20124;-85
2023/05/31 13:07:14;;;;;;;0.63;0.35;;;;;;;24.98;33.59;101580.63;5160578;28;20052;-86
2023/05/31 13:10:07;;;;;;;0.50;0.50;;;;;;;25.05;33.78;101572.94;5172294;28;20025;-86
2023/05/31 13:12:58;;;;;;;0.30;0.30;;;;;;;25.13;33.95;101573.22;5183889;28;20041;-87
2023/05/31 13:15:48;;;;;;;0.40;0.40;;;;;;;25.20;33.70;101562.88;5195045;28;20033;-86
2023/05/31 13:18:39;;;;;;;0.95;0.57;;;;;;;25.33;33.68;101566.31;5176309;28;20103;-87
2023/05/31 13:21:34;;;;;;;0.98;0.95;;;;;;;25.24;33.59;101553.63;5196178;28;20029;-87